createdAt,value
2023-01-28T00:19:22.853Z,0.9
2023-01-28T00:48:41.919Z,0.7
2023-01-28T01:17:57.510Z,0.6
2023-01-28T01:47:17.719Z,0.5
2023-01-28T02:16:35.227Z,0.6
2023-01-28T02:45:48.423Z,0.8
2023-01-28T03:15:06.364Z,0.8
2023-01-28T03:44:24.923Z,0.9
2023-01-28T04:13:27.537Z,1
2023-01-28T04:42:44.879Z,1
2023-01-28T05:12:03.828Z,1.1
2023-01-28T05:41:17.968Z,1.2
2023-01-28T06:10:29.282Z,1.2
2023-01-28T06:39:45.675Z,1.3
2023-01-28T07:09:01.097Z,1.4
2023-01-28T07:38:22.637Z,1.4
2023-01-28T08:07:36.465Z,1.6
2023-01-28T08:36:54.811Z,1.8
2023-01-28T09:06:12.429Z,2.2
2023-01-28T09:35:25.684Z,2.6
2023-01-28T10:04:47.603Z,3
2023-01-28T10:34:10.657Z,3.4
2023-01-28T11:03:23.508Z,3.8
2023-01-28T11:32:43.664Z,4.1
2023-01-28T12:02:02.585Z,4
2023-01-28T12:31:23.843Z,3.7
2023-01-28T13:00:33.040Z,3.6
2023-01-28T13:29:51.378Z,3.6
2023-01-28T13:59:14.629Z,3.4
2023-01-28T14:28:34.214Z,3.2
2023-01-28T14:57:51.439Z,3
2023-01-28T15:27:08.849Z,2.9
2023-01-28T15:56:26.311Z,2.8
2023-01-28T16:25:49.009Z,2.7
2023-01-28T16:55:09.118Z,2.7
2023-01-28T17:24:28.217Z,2.5
2023-01-28T17:53:39.130Z,2.5
2023-01-28T18:22:58.729Z,2.5
2023-01-28T18:52:15.779Z,2.4
2023-01-28T19:21:30.955Z,2.3
2023-01-28T19:50:40.462Z,2.2
2023-01-28T20:20:00.793Z,2
2023-01-28T20:49:12.080Z,1.9
2023-01-28T21:18:27.833Z,1.7
2023-01-28T21:47:44.535Z,1.5
2023-01-28T22:17:04.186Z,1.4
2023-01-28T22:46:09.854Z,1.3
2023-01-28T23:15:19.538Z,1.1
2023-01-28T23:44:29.140Z,1.1
